Time;durP1;ratioP1;P1;durP2;ratioP2;P2;SDS_P1;SDS_P2;PMS_P1;PMS_P2;Temp;Humidity;BMP_temperature;BMP_pressure;BME280_temperature;BME280_humidity;BME280_pressure;Samples;Min_cycle;Max_cycle;Signal;HPM_P1;HPM_P2
2022/01/23 00:00:43;;;;;;;10.23;6.05;;;6.10;99.90;;;;;;5138478;27;20035;-64
2022/01/23 00:03:16;;;;;;;10.20;5.38;;;6.10;99.90;;;;;;5137906;27;20039;-64
2022/01/23 00:05:44;;;;;;;12.13;6.63;;;6.10;99.90;;;;;;5138322;27;20363;-67
2022/01/23 00:08:12;;;;;;;11.88;5.72;;;6.10;99.90;;;;;;5100716;28;20035;-64
2022/01/23 00:10:42;;;;;;;8.35;5.38;;;6.10;99.90;;;;;;5117012;28;20036;-65
2022/01/23 00:18:21;;;;;;;11.93;5.60;;;6.20;99.90;;;;;;5112303;28;20155;-65
2022/01/23 00:20:48;;;;;;;11.35;5.50;;;6.20;99.90;;;;;;5119386;27;20523;-66
2022/01/23 00:23:35;;;;;;;12.18;5.78;;;6.20;99.90;;;;;;5137506;27;20122;-64
2022/01/23 00:31:34;;;;;;;11.00;5.65;;;6.10;99.90;;;;;;5137168;27;20040;-64
2022/01/23 00:34:00;;;;;;;11.50;6.22;;;6.10;99.90;;;;;;5137855;27;20039;-64
2022/01/23 00:36:27;;;;;;;8.35;5.30;;;6.10;99.90;;;;;;5119577;27;20380;-66
2022/01/23 00:38:54;;;;;;;8.93;4.90;;;6.10;99.90;;;;;;5131303;27;20447;-64
2022/01/23 00:41:19;;;;;;;11.57;4.97;;;6.00;99.90;;;;;;5137721;27;20047;-65
2022/01/23 00:43:45;;;;;;;9.90;4.82;;;6.00;99.90;;;;;;5136863;27;20031;-64
2022/01/23 00:51:22;;;;;;;9.88;5.05;;;6.00;99.90;;;;;;5116126;28;20493;-64
2022/01/23 00:53:47;;;;;;;9.70;4.70;;;6.00;99.90;;;;;;5132814;27;20038;-65
2022/01/23 00:56:13;;;;;;;9.45;4.30;;;6.00;99.90;;;;;;5137090;27;20224;-65
2022/01/23 00:58:39;;;;;;;7.10;3.95;;;6.10;99.90;;;;;;5136114;27;20039;-65
2022/01/23 01:01:05;;;;;;;12.77;4.65;;;6.10;99.90;;;;;;5136941;27;20035;-64
2022/01/23 01:03:30;;;;;;;9.32;4.20;;;6.00;99.90;;;;;;5137228;27;20041;-64
2022/01/23 01:05:56;;;;;;;9.98;4.25;;;6.00;99.90;;;;;;5119063;27;20039;-66
2022/01/23 01:08:22;;;;;;;10.55;4.28;;;6.00;99.90;;;;;;5136769;27;20039;-64
2022/01/23 01:13:52;;;;;;;7.47;4.23;;;6.00;99.90;;;;;;5137117;27;20047;-65
2022/01/23 01:30:28;;;;;;;10.17;4.03;;;5.90;99.90;;;;;;5116506;28;20116;-66
2022/01/23 01:33:35;;;;;;;9.35;4.78;;;5.90;99.90;;;;;;5116447;28;20047;-66
2022/01/23 01:38:11;;;;;;;9.93;4.38;;;5.80;99.90;;;;;;5121744;27;20118;-65
2022/01/23 01:40:37;;;;;;;9.68;4.20;;;5.80;99.90;;;;;;5136336;27;20455;-63
2022/01/23 01:43:04;;;;;;;9.90;4.85;;;5.90;99.90;;;;;;5136657;27;20045;-65
2022/01/23 01:45:32;;;;;;;10.18;5.00;;;5.90;99.90;;;;;;5136758;27;20031;-65
2022/01/23 01:48:00;;;;;;;13.82;6.05;;;5.80;99.90;;;;;;5131426;27;20035;-67
2022/01/23 01:50:27;;;;;;;10.65;6.57;;;5.90;99.90;;;;;;5115949;28;20119;-67
2022/01/23 01:52:53;;;;;;;11.40;5.70;;;5.90;99.90;;;;;;5116034;28;20035;-65
2022/01/23 01:55:26;;;;;;;13.10;5.38;;;5.90;99.90;;;;;;5097630;28;20046;-65
2022/01/23 01:57:56;;;;;;;11.50;5.22;;;5.90;99.90;;;;;;5118954;27;20114;-65
2022/01/23 02:08:29;;;;;;;9.48;4.50;;;5.90;99.90;;;;;;5110738;28;20043;-65
2022/01/23 02:11:06;;;;;;;9.00;4.25;;;5.90;99.90;;;;;;5115642;28;20341;-64
2022/01/23 02:56:58;;;;;;;7.53;3.95;;;5.90;99.90;;;;;;5116728;27;20054;-64
2022/01/23 02:59:30;;;;;;;9.77;4.20;;;5.90;99.90;;;;;;5098634;27;20519;-64
2022/01/23 03:02:04;;;;;;;8.43;3.80;;;6.00;99.90;;;;;;5134820;27;20053;-64
2022/01/23 03:04:33;;;;;;;7.68;4.45;;;6.00;99.90;;;;;;5134732;27;20478;-64
2022/01/23 03:07:19;;;;;;;8.70;4.57;;;6.00;99.90;;;;;;5116452;28;20054;-65
2022/01/23 03:14:58;;;;;;;8.13;4.45;;;6.00;99.90;;;;;;5114389;28;20036;-64
2022/01/23 03:26:10;;;;;;;8.32;4.28;;;6.10;99.90;;;;;;5114237;28;20050;-65
2022/01/23 03:29:00;;;;;;;6.65;3.90;;;6.10;99.90;;;;;;5121783;27;20384;-64
2022/01/23 03:31:27;;;;;;;8.00;3.80;;;6.10;99.90;;;;;;5134175;28;20039;-64
2022/01/23 03:33:53;;;;;;;7.82;3.90;;;6.10;99.90;;;;;;5116755;28;20107;-64
2022/01/23 03:36:19;;;;;;;6.72;3.45;;;6.10;99.90;;;;;;5116288;28;20035;-65
2022/01/23 03:38:45;;;;;;;6.47;3.17;;;6.10;99.90;;;;;;5123779;28;20024;-66
2022/01/23 03:41:12;;;;;;;6.28;3.35;;;6.10;99.90;;;;;;5113988;28;20032;-64
2022/01/23 03:43:39;;;;;;;6.03;3.17;;;6.10;99.90;;;;;;5096319;28;20031;-64
2022/01/23 03:51:12;;;;;;;8.77;3.63;;;6.10;99.90;;;;;;5116499;28;20059;-64
2022/01/23 03:53:39;;;;;;;6.10;3.17;;;6.10;99.90;;;;;;5134609;28;20035;-64
2022/01/23 03:56:05;;;;;;;6.70;3.08;;;6.00;99.90;;;;;;5134368;28;20050;-63
2022/01/23 03:58:31;;;;;;;7.93;3.20;;;6.00;99.90;;;;;;5125834;28;20043;-64
2022/01/23 04:00:57;;;;;;;6.32;2.97;;;6.00;99.90;;;;;;5113530;28;20478;-64
2022/01/23 04:03:23;;;;;;;5.35;3.22;;;5.90;99.90;;;;;;5095938;28;20110;-64
2022/01/23 04:05:50;;;;;;;5.82;2.83;;;6.00;99.90;;;;;;5096191;28;20040;-65
2022/01/23 04:08:17;;;;;;;6.45;2.78;;;6.00;99.90;;;;;;5113496;28;20038;-64
2022/01/23 04:10:42;;;;;;;5.70;3.33;;;6.00;99.90;;;;;;5096112;28;20414;-64
2022/01/23 04:34:49;;;;;;;4.85;2.92;;;5.80;99.90;;;;;;5117284;28;20453;-63
2022/01/23 04:45:32;;;;;;;8.65;3.47;;;5.90;99.90;;;;;;5117202;28;20035;-64
2022/01/23 05:07:26;;;;;;;7.10;3.60;;;6.00;99.90;;;;;;5116316;28;20393;-65
2022/01/23 05:09:28;;;;;;;7.88;4.00;;;6.00;99.90;;;;;;5120330;27;20481;-64
2022/01/23 05:12:05;;;;;;;10.27;3.72;;;6.00;99.90;;;;;;5137123;27;20043;-63
2022/01/23 05:14:39;;;;;;;7.97;4.13;;;6.10;99.90;;;;;;5118972;27;20057;-65
2022/01/23 05:17:06;;;;;;;9.60;4.20;;;6.10;99.90;;;;;;5136353;27;20066;-65
2022/01/23 05:19:33;;;;;;;7.38;4.07;;;6.10;99.90;;;;;;5120322;27;20050;-64
2022/01/23 05:24:41;;;;;;;9.45;4.10;;;6.00;99.90;;;;;;5116474;28;20035;-64
2022/01/23 05:27:10;;;;;;;8.30;4.85;;;6.00;99.90;;;;;;5098527;28;20083;-63
2022/01/23 05:29:36;;;;;;;7.05;4.53;;;5.90;99.90;;;;;;5132618;27;20039;-65
2022/01/23 05:32:03;;;;;;;9.88;4.88;;;5.80;99.90;;;;;;5118253;27;20409;-65
2022/01/23 05:34:29;;;;;;;8.25;4.32;;;5.80;99.90;;;;;;5136484;27;20420;-64
2022/01/23 05:36:55;;;;;;;8.77;4.93;;;5.80;99.90;;;;;;5118488;27;20125;-65
2022/01/23 05:39:24;;;;;;;8.60;4.85;;;5.70;99.90;;;;;;5122619;27;20043;-65
2022/01/23 05:41:54;;;;;;;8.02;4.88;;;5.70;99.90;;;;;;5136460;27;20031;-63
2022/01/23 05:44:20;;;;;;;9.40;4.90;;;5.70;99.90;;;;;;5136755;27;20034;-64
2022/01/23 05:46:46;;;;;;;10.73;5.28;;;5.70;99.90;;;;;;5136279;27;20114;-66
2022/01/23 05:49:13;;;;;;;14.20;5.43;;;5.70;99.90;;;;;;5122781;27;20421;-65
2022/01/23 05:51:38;;;;;;;10.40;5.63;;;5.70;99.90;;;;;;5115752;28;20108;-64
2022/01/23 05:54:04;;;;;;;12.50;6.68;;;5.70;99.90;;;;;;5116711;27;20420;-64
2022/01/23 05:56:29;;;;;;;11.25;6.57;;;5.70;99.90;;;;;;5135631;27;20074;-64
2022/01/23 05:58:56;;;;;;;11.32;5.97;;;5.80;99.90;;;;;;5135368;27;20031;-65
2022/01/23 06:01:22;;;;;;;12.23;7.30;;;5.80;99.90;;;;;;5136355;27;20039;-64
2022/01/23 06:03:48;;;;;;;10.35;6.53;;;5.80;99.90;;;;;;5135965;27;20078;-65
2022/01/23 06:06:14;;;;;;;10.93;7.70;;;5.80;99.90;;;;;;5136302;27;20122;-63
2022/01/23 06:08:39;;;;;;;12.77;7.25;;;5.70;99.90;;;;;;5135087;27;20095;-63
2022/01/23 06:11:05;;;;;;;13.65;7.78;;;5.70;99.90;;;;;;5135846;27;20035;-64
2022/01/23 06:13:32;;;;;;;14.63;8.07;;;5.70;99.90;;;;;;5136054;27;20096;-64
2022/01/23 06:15:59;;;;;;;13.68;8.48;;;5.80;99.90;;;;;;5135735;27;20099;-63
2022/01/23 06:18:25;;;;;;;10.63;7.72;;;5.80;99.90;;;;;;5134741;27;20043;-63
2022/01/23 06:20:51;;;;;;;11.60;7.97;;;5.80;99.90;;;;;;5135997;27;20058;-65
2022/01/23 06:23:17;;;;;;;13.30;8.90;;;5.80;99.90;;;;;;5135650;27;20031;-66
2022/01/23 06:25:48;;;;;;;11.63;8.20;;;5.70;99.90;;;;;;5117494;27;20035;-68
2022/01/23 06:28:28;;;;;;;10.88;7.88;;;5.80;99.90;;;;;;5083380;27;20043;-64
2022/01/23 06:30:54;;;;;;;11.32;8.13;;;5.80;99.90;;;;;;5100476;27;20035;-66
2022/01/23 06:33:19;;;;;;;14.45;8.30;;;5.80;99.90;;;;;;5138343;27;20096;-64
2022/01/23 06:35:45;;;;;;;11.85;7.75;;;5.70;99.90;;;;;;5156099;27;20041;-65
2022/01/23 06:38:11;;;;;;;11.85;8.07;;;5.70;99.90;;;;;;5150928;27;20027;-66
2022/01/23 06:40:36;;;;;;;12.20;8.27;;;5.70;99.90;;;;;;5135583;27;20414;-65
2022/01/23 06:43:02;;;;;;;11.85;7.68;;;5.60;99.90;;;;;;5134302;27;20349;-66
2022/01/23 06:45:28;;;;;;;10.93;8.43;;;5.60;99.90;;;;;;5135431;27;20095;-65
2022/01/23 06:47:53;;;;;;;11.00;7.95;;;5.60;99.90;;;;;;5134532;27;20241;-64
2022/01/23 06:50:19;;;;;;;14.88;8.93;;;5.60;99.90;;;;;;5116891;27;20047;-66
2022/01/23 06:52:45;;;;;;;10.60;7.97;;;5.70;99.90;;;;;;5134960;27;20099;-66
2022/01/23 06:55:10;;;;;;;11.75;8.35;;;5.70;99.90;;;;;;5117095;27;20039;-64
2022/01/23 06:57:36;;;;;;;11.68;7.63;;;5.70;99.90;;;;;;5134743;27;20043;-64
2022/01/23 07:00:03;;;;;;;10.90;7.32;;;5.70;99.90;;;;;;5116409;27;20043;-66
2022/01/23 07:02:29;;;;;;;11.95;7.32;;;5.70;99.90;;;;;;5116647;27;20122;-66
2022/01/23 07:04:56;;;;;;;12.40;7.85;;;5.70;99.90;;;;;;5134998;27;20070;-64
2022/01/23 07:07:22;;;;;;;14.00;8.07;;;5.70;99.90;;;;;;5134998;27;20082;-64
2022/01/23 07:09:47;;;;;;;13.30;8.52;;;5.60;99.90;;;;;;5116367;27;20433;-65
2022/01/23 07:12:13;;;;;;;12.40;7.90;;;5.60;99.90;;;;;;5135041;27;20039;-64
2022/01/23 07:14:39;;;;;;;11.18;7.80;;;5.60;99.90;;;;;;5134943;27;20091;-66
2022/01/23 07:17:04;;;;;;;11.32;8.07;;;5.70;99.90;;;;;;5115894;28;20082;-65
2022/01/23 07:19:30;;;;;;;13.25;8.68;;;5.60;99.90;;;;;;5134385;27;20034;-65
2022/01/23 07:21:56;;;;;;;12.52;8.30;;;5.70;99.90;;;;;;5135004;27;20336;-65
2022/01/23 07:24:23;;;;;;;12.38;8.38;;;5.70;99.90;;;;;;5134638;27;20050;-65
2022/01/23 07:26:48;;;;;;;12.10;7.80;;;5.70;99.90;;;;;;5134273;27;20415;-65
2022/01/23 07:29:16;;;;;;;11.57;8.27;;;5.70;99.90;;;;;;5133779;27;20047;-66
2022/01/23 07:34:09;;;;;;;12.70;7.82;;;5.70;99.90;;;;;;5134834;28;20049;-66
2022/01/23 07:36:36;;;;;;;10.95;7.90;;;5.70;99.90;;;;;;5134645;28;20039;-64
2022/01/23 07:39:03;;;;;;;11.65;7.80;;;5.70;99.90;;;;;;5105486;28;20357;-63
2022/01/23 07:41:28;;;;;;;12.77;7.60;;;5.80;99.90;;;;;;5114157;28;20071;-64
2022/01/23 07:43:54;;;;;;;12.25;7.88;;;5.80;99.90;;;;;;5095856;28;20487;-64
2022/01/23 07:46:21;;;;;;;10.70;7.55;;;5.80;99.90;;;;;;5114052;28;20040;-65
2022/01/23 07:48:47;;;;;;;11.43;7.68;;;5.80;99.90;;;;;;5121690;28;20370;-65
2022/01/23 07:51:13;;;;;;;11.65;7.97;;;5.90;99.90;;;;;;5134283;28;20714;-65
2022/01/23 07:53:39;;;;;;;12.25;7.90;;;5.70;99.90;;;;;;5100545;27;20213;-64
2022/01/23 07:56:05;;;;;;;13.18;8.18;;;5.70;99.90;;;;;;5138779;27;20075;-65
2022/01/23 07:58:30;;;;;;;13.23;7.93;;;5.70;99.90;;;;;;5113057;28;20031;-64
2022/01/23 08:00:56;;;;;;;11.98;7.45;;;5.70;99.90;;;;;;5116969;28;20110;-65
2022/01/23 08:03:21;;;;;;;13.18;7.97;;;5.80;99.90;;;;;;5118176;28;20067;-65
2022/01/23 08:05:47;;;;;;;11.30;7.70;;;5.80;99.90;;;;;;5117900;28;20525;-65
2022/01/23 08:08:13;;;;;;;11.05;7.97;;;5.80;99.90;;;;;;5085835;27;20035;-66
2022/01/23 08:10:39;;;;;;;13.18;8.15;;;5.90;99.90;;;;;;5138546;27;20078;-65
2022/01/23 08:13:05;;;;;;;14.13;8.73;;;5.90;99.90;;;;;;5138335;27;20163;-66
2022/01/23 08:15:32;;;;;;;12.13;8.32;;;6.00;99.90;;;;;;5138317;27;20035;-68
2022/01/23 08:18:05;;;;;;;11.30;6.75;;;6.00;99.90;;;;;;5117549;27;20476;-64
2022/01/23 08:20:33;;;;;;;10.52;6.90;;;6.00;99.90;;;;;;5117651;28;20044;-67
2022/01/23 08:23:01;;;;;;;9.85;6.95;;;6.00;99.90;;;;;;5117289;28;20457;-65
2022/01/23 08:25:28;;;;;;;13.85;7.22;;;6.10;99.90;;;;;;5099916;28;20448;-65
2022/01/23 08:27:54;;;;;;;14.52;7.70;;;6.10;99.90;;;;;;5099105;28;20047;-65
2022/01/23 08:30:21;;;;;;;12.23;7.65;;;6.00;99.90;;;;;;5138246;27;20104;-66
2022/01/23 08:32:46;;;;;;;11.85;7.65;;;6.00;99.90;;;;;;5137885;27;20046;-66
2022/01/23 08:35:12;;;;;;;13.00;7.40;;;6.00;99.90;;;;;;5137813;27;20030;-66
2022/01/23 08:37:38;;;;;;;10.55;6.97;;;6.00;99.90;;;;;;5137590;27;20035;-65
2022/01/23 08:40:15;;;;;;;10.57;6.70;;;6.00;99.90;;;;;;5118803;27;20127;-62
2022/01/23 08:42:41;;;;;;;10.00;6.90;;;6.10;99.90;;;;;;5117326;28;20043;-63
2022/01/23 08:45:07;;;;;;;11.45;7.43;;;6.10;99.90;;;;;;5117010;28;20419;-64
2022/01/23 08:47:32;;;;;;;10.82;7.47;;;6.20;99.90;;;;;;5116378;28;20448;-64
2022/01/23 08:49:58;;;;;;;10.80;7.18;;;6.20;99.90;;;;;;5134686;27;20035;-64
2022/01/23 08:52:24;;;;;;;10.48;7.55;;;6.20;99.90;;;;;;5137705;27;20042;-64
2022/01/23 08:54:51;;;;;;;12.10;7.00;;;6.30;99.90;;;;;;5137850;27;20108;-65
2022/01/23 08:57:19;;;;;;;10.57;6.90;;;6.30;99.90;;;;;;5136814;27;20536;-64
2022/01/23 08:59:45;;;;;;;11.10;6.82;;;6.30;99.90;;;;;;5103063;28;20092;-65
2022/01/23 09:02:11;;;;;;;10.77;7.20;;;6.40;99.90;;;;;;5116766;28;20091;-64
2022/01/23 09:04:37;;;;;;;10.30;7.15;;;6.40;99.90;;;;;;5116362;28;20039;-63
2022/01/23 09:07:03;;;;;;;11.30;7.28;;;6.40;99.90;;;;;;5115991;28;20040;-63
2022/01/23 09:09:32;;;;;;;12.57;7.35;;;6.40;99.90;;;;;;5112325;27;20042;-63
2022/01/23 09:12:24;;;;;;;12.00;7.88;;;6.40;99.90;;;;;;5118985;27;20053;-63
2022/01/23 09:14:50;;;;;;;13.30;8.52;;;6.50;99.90;;;;;;5137396;27;20047;-63
2022/01/23 09:17:16;;;;;;;12.00;7.72;;;6.50;99.90;;;;;;5136431;27;20051;-65
2022/01/23 09:19:45;;;;;;;13.70;8.23;;;6.50;99.90;;;;;;5121465;27;20047;-65
2022/01/23 09:22:11;;;;;;;12.43;8.05;;;6.60;99.90;;;;;;5103947;27;20051;-63
2022/01/23 09:24:37;;;;;;;12.45;8.15;;;6.60;99.90;;;;;;5128450;27;20129;-65
2022/01/23 09:27:05;;;;;;;13.10;8.43;;;6.70;99.90;;;;;;5116198;27;20222;-65
2022/01/23 09:29:38;;;;;;;12.43;7.85;;;6.60;99.90;;;;;;5134392;27;20043;-64
2022/01/23 09:32:10;;;;;;;14.43;8.90;;;6.70;99.90;;;;;;5117419;27;20043;-63
2022/01/23 09:34:36;;;;;;;12.50;7.97;;;6.70;99.90;;;;;;5117422;27;20073;-64
2022/01/23 09:37:07;;;;;;;10.90;7.30;;;6.70;99.90;;;;;;5135378;27;20166;-67
2022/01/23 09:39:35;;;;;;;13.80;8.13;;;6.80;99.90;;;;;;5110790;27;20047;-65
2022/01/23 09:42:11;;;;;;;13.57;8.20;;;6.70;99.90;;;;;;5113827;27;20032;-65
2022/01/23 09:44:46;;;;;;;12.45;7.68;;;6.70;99.90;;;;;;5126256;27;20072;-64
2022/01/23 09:47:14;;;;;;;12.05;7.60;;;6.70;99.90;;;;;;5114584;28;20036;-66
2022/01/23 09:49:43;;;;;;;11.80;7.40;;;6.80;99.90;;;;;;5114695;27;20035;-64
2022/01/23 09:52:11;;;;;;;12.07;6.85;;;6.80;99.90;;;;;;5135804;27;20050;-64
2022/01/23 09:54:39;;;;;;;10.80;6.47;;;6.90;99.90;;;;;;5135738;27;20046;-64
2022/01/23 09:57:08;;;;;;;9.60;6.10;;;6.90;99.90;;;;;;5116920;27;20084;-63
2022/01/23 09:59:33;;;;;;;10.43;6.57;;;7.00;99.90;;;;;;5116420;27;20049;-64
2022/01/23 10:02:01;;;;;;;10.20;6.30;;;7.00;99.90;;;;;;5135184;27;20031;-63
2022/01/23 10:04:27;;;;;;;9.95;5.90;;;7.00;99.90;;;;;;5135256;27;20133;-64
2022/01/23 10:06:54;;;;;;;8.82;5.78;;;7.00;99.90;;;;;;5132369;27;20032;-64
2022/01/23 10:09:27;;;;;;;8.65;5.70;;;7.00;99.90;;;;;;5099520;27;20043;-64
2022/01/23 10:11:53;;;;;;;9.18;6.10;;;7.00;99.90;;;;;;5135338;27;20351;-65
2022/01/23 10:14:20;;;;;;;9.48;5.90;;;7.00;99.90;;;;;;5135973;27;20417;-65
2022/01/23 10:16:47;;;;;;;7.47;5.22;;;7.10;99.90;;;;;;5134223;27;20051;-65
2022/01/23 10:19:14;;;;;;;8.15;5.25;;;7.20;99.90;;;;;;5132893;27;20043;-66
2022/01/23 10:21:43;;;;;;;8.15;5.28;;;7.30;99.90;;;;;;5135473;27;20057;-64
2022/01/23 10:24:11;;;;;;;9.77;5.20;;;7.30;99.90;;;;;;5117255;27;20096;-64
2022/01/23 10:26:53;;;;;;;7.45;4.43;;;7.30;99.90;;;;;;5133953;27;20464;-64
2022/01/23 10:29:26;;;;;;;7.60;4.93;;;7.30;99.90;;;;;;5115441;27;20046;-65
2022/01/23 10:32:02;;;;;;;7.35;4.45;;;7.20;99.90;;;;;;5099295;27;20043;-64
2022/01/23 10:34:59;;;;;;;7.80;4.97;;;7.30;99.90;;;;;;5133195;27;20035;-64
2022/01/23 10:37:38;;;;;;;8.25;4.78;;;7.30;99.90;;;;;;5115194;27;20050;-66
2022/01/23 10:40:21;;;;;;;8.40;4.63;;;7.30;99.90;;;;;;5122850;27;20042;-65
2022/01/23 10:48:23;;;;;;;7.57;4.65;;;7.50;99.90;;;;;;5131964;27;20035;-65
2022/01/23 10:50:49;;;;;;;6.57;4.50;;;7.60;99.90;;;;;;5114694;27;20119;-65
2022/01/23 10:53:15;;;;;;;5.78;3.88;;;7.60;99.90;;;;;;5117069;27;20050;-65
2022/01/23 10:55:43;;;;;;;9.05;4.22;;;7.60;99.90;;;;;;5134643;27;20434;-65
2022/01/23 10:58:18;;;;;;;6.47;3.60;;;7.70;99.90;;;;;;5133818;27;20039;-65
2022/01/23 11:00:44;;;;;;;6.25;3.70;;;7.70;99.90;;;;;;5134580;27;20125;-67
2022/01/23 11:03:22;;;;;;;6.53;3.45;;;7.70;99.90;;;;;;5116614;27;20126;-65
2022/01/23 11:05:50;;;;;;;6.55;3.55;;;7.70;99.90;;;;;;5116652;27;20081;-65
2022/01/23 11:08:23;;;;;;;5.63;3.15;;;7.70;99.90;;;;;;5115182;27;20039;-65
2022/01/23 11:11:08;;;;;;;5.15;3.13;;;7.80;99.90;;;;;;5134925;27;20470;-65
2022/01/23 11:19:21;;;;;;;5.15;2.80;;;7.80;99.90;;;;;;5105190;28;20082;-65
2022/01/23 11:21:47;;;;;;;4.75;2.60;;;7.80;99.90;;;;;;5114152;28;20050;-65
2022/01/23 11:24:14;;;;;;;4.35;2.42;;;7.80;99.90;;;;;;5114058;28;20436;-66
2022/01/23 11:26:41;;;;;;;4.60;2.63;;;7.80;99.90;;;;;;5114068;28;20181;-65
2022/01/23 11:29:18;;;;;;;5.95;2.67;;;7.80;99.90;;;;;;5104631;28;20039;-65
2022/01/23 11:31:44;;;;;;;6.75;3.20;;;7.90;99.90;;;;;;5134625;27;20043;-66
2022/01/23 11:34:13;;;;;;;5.22;3.20;;;7.90;99.90;;;;;;5116512;28;20421;-65
2022/01/23 11:36:39;;;;;;;5.20;3.25;;;7.80;99.90;;;;;;5116157;28;20035;-65
2022/01/23 11:39:14;;;;;;;5.57;3.40;;;7.80;99.90;;;;;;5125347;28;20116;-65
2022/01/23 11:56:32;;;;;;;5.07;3.33;;;7.90;99.90;;;;;;5134663;28;20043;-65
2022/01/23 11:59:14;;;;;;;6.40;3.13;;;7.90;99.90;;;;;;5126459;28;20040;-65
2022/01/23 12:01:42;;;;;;;5.40;3.35;;;7.90;99.90;;;;;;5120058;28;20084;-65
2022/01/23 12:04:08;;;;;;;6.75;3.80;;;7.90;99.90;;;;;;5112540;28;20042;-66
2022/01/23 12:06:35;;;;;;;6.82;5.15;;;7.90;99.90;;;;;;5133742;28;20047;-64
2022/01/23 12:09:10;;;;;;;7.30;5.22;;;8.00;99.90;;;;;;5120709;28;20425;-64
2022/01/23 12:16:59;;;;;;;5.13;2.75;;;8.10;99.90;;;;;;5108995;28;20055;-64
2022/01/23 12:19:31;;;;;;;5.03;2.92;;;8.10;99.90;;;;;;5122591;28;20050;-65
2022/01/23 12:22:17;;;;;;;3.33;2.08;;;8.10;99.90;;;;;;5105533;28;20336;-64
2022/01/23 12:24:49;;;;;;;3.08;1.92;;;8.10;99.90;;;;;;5124557;28;20035;-63
2022/01/23 12:27:26;;;;;;;4.60;2.20;;;8.10;99.90;;;;;;5133435;28;20083;-66
2022/01/23 12:30:10;;;;;;;3.00;1.90;;;8.20;99.90;;;;;;5132820;28;20409;-65
2022/01/23 12:32:36;;;;;;;1.58;1.13;;;8.20;99.90;;;;;;5133544;28;20065;-66
2022/01/23 12:35:07;;;;;;;1.17;1.00;;;8.20;99.90;;;;;;5133895;28;20084;-64
2022/01/23 12:38:00;;;;;;;1.73;0.95;;;8.20;99.90;;;;;;5133246;28;20071;-62
2022/01/23 12:40:36;;;;;;;1.02;0.70;;;8.20;99.90;;;;;;5132743;27;20374;-64
2022/01/23 12:43:21;;;;;;;1.35;0.90;;;8.10;99.90;;;;;;5119831;27;20119;-66
2022/01/23 12:45:54;;;;;;;2.78;1.10;;;8.10;99.90;;;;;;5135816;27;20063;-65
2022/01/23 12:48:26;;;;;;;2.15;1.00;;;8.20;99.90;;;;;;5134876;27;20329;-63
2022/01/23 12:51:00;;;;;;;2.60;1.20;;;8.10;99.90;;;;;;5099219;28;20055;-64
2022/01/23 12:53:35;;;;;;;4.32;1.20;;;8.20;99.90;;;;;;5117005;28;20039;-64
2022/01/23 12:56:10;;;;;;;2.85;1.33;;;8.20;99.90;;;;;;5116954;28;20052;-64
2022/01/23 12:58:37;;;;;;;2.63;1.27;;;8.10;99.90;;;;;;5129643;27;20063;-64
2022/01/23 13:01:23;;;;;;;1.90;1.10;;;8.20;99.90;;;;;;5117043;28;20236;-64
2022/01/23 13:03:54;;;;;;;2.85;1.20;;;8.20;99.90;;;;;;5116969;28;20036;-64
2022/01/23 13:06:39;;;;;;;1.92;1.10;;;8.10;99.90;;;;;;5116951;28;20054;-64
2022/01/23 13:12:17;;;;;;;2.25;1.05;;;8.20;99.90;;;;;;5119597;27;19956;-64
2022/01/23 13:14:50;;;;;;;1.92;1.23;;;8.20;99.90;;;;;;5119334;27;20656;-64
2022/01/23 13:30:34;;;;;;;2.42;1.40;;;8.30;99.90;;;;;;5118318;27;20054;-64
2022/01/23 13:33:10;;;;;;;2.50;1.35;;;8.30;99.90;;;;;;5118565;27;20514;-64
2022/01/23 13:35:40;;;;;;;3.05;1.60;;;8.20;99.90;;;;;;5120455;27;20043;-62
2022/01/23 13:38:10;;;;;;;2.47;1.50;;;8.30;99.90;;;;;;5135806;27;20364;-63
2022/01/23 13:40:41;;;;;;;2.88;1.70;;;8.30;99.90;;;;;;5115835;28;20441;-63
2022/01/23 14:00:14;;;;;;;3.25;2.05;;;8.10;99.90;;;;;;5126792;27;20363;-65
2022/01/23 14:02:29;;;;;;;3.10;1.30;;;8.10;99.90;;;;;;5102090;28;20151;-66
2022/01/23 14:05:19;;;;;;;4.28;1.95;;;8.10;99.90;;;;;;5115612;28;20063;-65
2022/01/23 14:07:57;;;;;;;2.30;1.80;;;8.20;99.90;;;;;;5117730;27;20050;-65
2022/01/23 14:10:29;;;;;;;3.33;1.80;;;8.10;99.90;;;;;;5116033;27;20054;-65
2022/01/23 14:13:14;;;;;;;2.10;1.50;;;8.10;99.90;;;;;;5133468;27;20463;-64
2022/01/23 14:15:45;;;;;;;2.72;1.70;;;8.10;99.90;;;;;;5103503;27;20054;-64
2022/01/23 14:18:13;;;;;;;3.00;1.70;;;8.10;99.90;;;;;;5127194;27;20387;-64
2022/01/23 14:20:45;;;;;;;4.35;1.95;;;8.10;99.90;;;;;;5115087;28;20044;-64
2022/01/23 14:23:20;;;;;;;3.90;1.88;;;8.00;99.90;;;;;;5115313;28;20035;-65
2022/01/23 14:26:10;;;;;;;4.60;2.10;;;8.00;99.90;;;;;;5097065;28;20043;-65
2022/01/23 14:28:40;;;;;;;3.47;2.08;;;8.00;99.90;;;;;;5115997;27;20035;-65
2022/01/23 14:31:17;;;;;;;4.50;2.40;;;8.00;99.90;;;;;;5096356;28;20120;-65
2022/01/23 14:33:44;;;;;;;3.75;1.70;;;8.00;99.90;;;;;;5104958;27;20115;-65
2022/01/23 14:36:28;;;;;;;3.30;1.80;;;8.00;99.90;;;;;;5107934;28;20472;-65
2022/01/23 14:38:58;;;;;;;3.58;1.65;;;8.00;99.90;;;;;;5121489;27;20031;-64
2022/01/23 14:41:27;;;;;;;4.70;2.33;;;8.00;99.90;;;;;;5104880;28;20353;-65
2022/01/23 14:43:52;;;;;;;3.55;1.50;;;8.00;99.90;;;;;;5130927;27;20038;-65
2022/01/23 14:46:19;;;;;;;2.25;1.60;;;8.00;99.90;;;;;;5116266;27;20044;-66
2022/01/23 14:48:50;;;;;;;3.00;1.60;;;8.00;99.90;;;;;;5132706;27;20027;-65
2022/01/23 14:51:24;;;;;;;2.50;1.58;;;7.90;99.90;;;;;;5116830;27;20452;-65
2022/01/23 14:53:51;;;;;;;2.85;1.92;;;7.90;99.90;;;;;;5135008;27;20039;-65
2022/01/23 14:56:19;;;;;;;2.58;2.03;;;7.90;99.90;;;;;;5134291;27;20027;-64
2022/01/23 14:58:45;;;;;;;2.83;1.77;;;7.90;99.90;;;;;;5132106;27;20035;-65
2022/01/23 15:01:13;;;;;;;3.08;1.90;;;7.90;99.90;;;;;;5113536;27;20043;-65
2022/01/23 15:03:43;;;;;;;5.20;2.38;;;7.90;99.90;;;;;;5133944;27;20027;-65
2022/01/23 15:06:09;;;;;;;5.07;2.25;;;7.80;99.90;;;;;;5134831;27;20130;-65
2022/01/23 15:08:37;;;;;;;3.88;2.30;;;7.80;99.90;;;;;;5130773;27;20032;-64
2022/01/23 15:11:03;;;;;;;4.28;2.92;;;7.80;99.90;;;;;;5134095;27;20400;-64
2022/01/23 15:13:30;;;;;;;4.70;2.95;;;7.80;99.90;;;;;;5115637;27;20504;-64
2022/01/23 15:15:58;;;;;;;4.75;1.95;;;7.80;99.90;;;;;;5098657;27;20062;-64
2022/01/23 15:18:25;;;;;;;6.13;2.40;;;7.70;99.90;;;;;;5132646;27;20039;-63
2022/01/23 15:20:51;;;;;;;2.90;1.85;;;7.70;99.90;;;;;;5134158;27;20410;-64
2022/01/23 15:23:17;;;;;;;3.45;2.20;;;7.80;99.90;;;;;;5134279;27;20084;-63
2022/01/23 15:25:45;;;;;;;3.55;2.20;;;7.70;99.90;;;;;;5133989;27;20111;-65
2022/01/23 15:28:11;;;;;;;3.92;2.25;;;7.80;99.90;;;;;;5133816;27;20038;-63
2022/01/23 15:30:39;;;;;;;3.35;2.20;;;7.70;99.90;;;;;;5132073;27;20039;-63
2022/01/23 15:33:06;;;;;;;4.20;2.40;;;7.80;99.90;;;;;;5132949;27;20050;-64
2022/01/23 15:35:33;;;;;;;3.08;2.20;;;7.70;99.90;;;;;;5113271;28;20099;-63
2022/01/23 15:37:59;;;;;;;5.85;3.13;;;7.70;99.90;;;;;;5131075;28;20368;-63
2022/01/23 15:40:25;;;;;;;6.47;3.47;;;7.70;99.90;;;;;;5132587;28;20045;-63
2022/01/23 15:42:53;;;;;;;6.50;3.70;;;7.80;99.90;;;;;;5133865;28;20408;-64
2022/01/23 15:45:20;;;;;;;4.50;2.78;;;7.70;99.90;;;;;;5134347;28;20063;-66
2022/01/23 15:47:46;;;;;;;2.75;2.10;;;7.70;99.90;;;;;;5115503;28;20039;-63
2022/01/23 15:50:14;;;;;;;4.80;2.63;;;7.70;99.90;;;;;;5133134;28;20345;-63
2022/01/23 15:52:41;;;;;;;4.05;2.70;;;7.70;99.90;;;;;;5131684;28;20051;-64
2022/01/23 15:55:09;;;;;;;4.18;2.20;;;7.70;99.90;;;;;;5122859;28;20042;-64
2022/01/23 15:57:35;;;;;;;4.70;2.40;;;7.70;99.90;;;;;;5113437;28;20023;-64
2022/01/23 16:00:03;;;;;;;9.27;6.75;;;7.60;99.90;;;;;;5122844;28;20440;-65
2022/01/23 16:02:29;;;;;;;7.28;5.10;;;7.60;99.90;;;;;;5114584;28;20043;-66
2022/01/23 16:04:54;;;;;;;7.75;4.07;;;7.60;99.90;;;;;;5114132;28;20023;-65
2022/01/23 16:07:20;;;;;;;4.93;3.17;;;7.60;99.90;;;;;;5132426;28;20510;-64
2022/01/23 16:09:46;;;;;;;5.28;3.50;;;7.60;99.90;;;;;;5120779;28;20047;-64
2022/01/23 16:12:14;;;;;;;5.40;3.08;;;7.60;99.90;;;;;;5129871;28;20043;-64
2022/01/23 16:14:40;;;;;;;4.38;3.10;;;7.50;99.90;;;;;;5133594;27;20039;-65
2022/01/23 16:17:06;;;;;;;4.72;3.10;;;7.60;99.90;;;;;;5120692;27;20043;-64
2022/01/23 16:19:32;;;;;;;6.18;3.83;;;7.50;99.90;;;;;;5155610;27;20293;-64
2022/01/23 16:21:58;;;;;;;5.97;3.17;;;7.50;99.90;;;;;;5157393;27;20119;-64
2022/01/23 16:24:24;;;;;;;7.78;3.92;;;7.50;99.90;;;;;;5157412;27;20117;-64
2022/01/23 16:26:52;;;;;;;6.82;3.55;;;7.50;99.90;;;;;;5157053;27;20378;-64
2022/01/23 16:29:20;;;;;;;11.75;8.05;;;7.60;99.90;;;;;;5155084;27;20055;-64
2022/01/23 16:31:47;;;;;;;7.88;5.50;;;7.60;99.90;;;;;;5151509;27;20125;-64
2022/01/23 16:34:13;;;;;;;8.07;4.32;;;7.60;99.90;;;;;;5121847;27;20109;-64
2022/01/23 16:36:39;;;;;;;6.88;4.40;;;7.60;99.90;;;;;;5105320;27;20100;-64
2022/01/23 16:39:05;;;;;;;7.00;3.83;;;7.60;99.90;;;;;;5150064;27;20024;-65
2022/01/23 16:41:31;;;;;;;7.15;4.25;;;7.60;99.90;;;;;;5155449;27;20459;-65
2022/01/23 16:43:57;;;;;;;105.13;23.58;;;7.60;99.90;;;;;;5158267;27;20034;-64
2022/01/23 16:46:23;;;;;;;44.55;15.40;;;7.80;99.90;;;;;;5157572;27;20066;-66